createdAt,value
2022-09-24T00:02:19.954Z,5.00
2022-09-24T00:04:48.102Z,4.75
2022-09-24T00:07:16.392Z,5.90
2022-09-24T00:09:44.668Z,5.57
2022-09-24T00:12:14.139Z,6.07
2022-09-24T00:14:43.391Z,5.22
2022-09-24T00:17:11.626Z,5.40
2022-09-24T00:19:40.071Z,5.55
2022-09-24T00:22:08.317Z,5.97
2022-09-24T00:24:53.751Z,5.03
2022-09-24T00:27:23.301Z,5.47
2022-09-24T00:29:51.397Z,5.50
2022-09-24T00:32:19.847Z,5.75
2022-09-24T00:34:47.973Z,5.22
2022-09-24T00:37:16.118Z,5.47
2022-09-24T00:39:44.295Z,5.00
2022-09-24T00:42:12.530Z,5.70
2022-09-24T00:44:53.193Z,5.38
2022-09-24T00:47:36.195Z,6.28
2022-09-24T00:50:18.068Z,6.63
2022-09-24T00:52:51.099Z,5.47
2022-09-24T00:55:21.013Z,5.53
2022-09-24T00:57:50.308Z,4.93
2022-09-24T01:00:20.351Z,5.68
2022-09-24T01:02:52.978Z,6.00
2022-09-24T01:05:21.191Z,5.88
2022-09-24T01:07:49.452Z,5.50
2022-09-24T01:10:40.318Z,5.40
2022-09-24T01:13:18.617Z,4.70
2022-09-24T01:15:56.481Z,5.38
2022-09-24T01:18:34.008Z,5.40
2022-09-24T01:21:20.584Z,5.40
2022-09-24T01:24:10.900Z,5.57
2022-09-24T01:26:54.002Z,6.90
2022-09-24T01:29:42.028Z,5.68
2022-09-24T01:32:19.481Z,5.53
2022-09-24T01:34:55.222Z,6.13
2022-09-24T01:37:25.851Z,5.68
2022-09-24T01:39:59.443Z,5.72
2022-09-24T01:42:30.542Z,5.90
2022-09-24T01:45:02.237Z,6.63
2022-09-24T01:47:35.699Z,6.38
2022-09-24T01:50:05.870Z,5.85
2022-09-24T01:52:42.136Z,6.60
2022-09-24T01:55:13.222Z,6.28
2022-09-24T01:57:47.098Z,6.13
2022-09-24T02:00:20.075Z,5.85
2022-09-24T02:02:52.805Z,6.65
2022-09-24T02:05:27.165Z,6.95
2022-09-24T02:08:03.761Z,6.82
2022-09-24T02:10:35.770Z,7.38
2022-09-24T02:13:06.908Z,7.70
2022-09-24T02:15:40.308Z,8.65
2022-09-24T02:18:10.764Z,8.35
2022-09-24T02:20:43.027Z,7.60
2022-09-24T02:23:12.702Z,7.75
2022-09-24T02:25:44.353Z,8.10
2022-09-24T02:28:12.567Z,7.68
2022-09-24T02:30:45.505Z,9.02
2022-09-24T02:33:30.083Z,8.02
2022-09-24T02:35:59.109Z,7.40
2022-09-24T02:38:27.301Z,8.65
2022-09-24T02:40:55.726Z,8.15
2022-09-24T02:43:24.332Z,7.97
2022-09-24T02:45:54.457Z,8.65
2022-09-24T02:48:22.668Z,8.07
2022-09-24T02:50:51.022Z,8.70
2022-09-24T02:53:19.138Z,8.63
2022-09-24T02:55:47.263Z,9.23
2022-09-24T02:58:15.551Z,8.32
2022-09-24T03:00:43.877Z,8.02
2022-09-24T03:03:13.496Z,8.80
2022-09-24T03:05:42.673Z,8.30
2022-09-24T03:08:10.861Z,8.85
2022-09-24T03:10:39.230Z,8.88
2022-09-24T03:13:07.871Z,8.45
2022-09-24T03:15:37.003Z,8.80
2022-09-24T03:18:05.268Z,8.63
2022-09-24T03:20:36.483Z,8.23
2022-09-24T03:23:05.620Z,8.00
2022-09-24T03:25:33.841Z,8.98
2022-09-24T03:28:02.256Z,8.80
2022-09-24T03:30:47.829Z,8.30
2022-09-24T03:33:16.098Z,8.38
2022-09-24T03:35:45.559Z,9.40
2022-09-24T03:38:13.726Z,9.35
2022-09-24T03:40:41.838Z,8.10
2022-09-24T03:43:10.101Z,7.72
2022-09-24T03:45:38.765Z,7.45
2022-09-24T03:48:07.027Z,7.88
2022-09-24T03:50:37.658Z,7.57
2022-09-24T03:53:07.142Z,7.60
2022-09-24T03:55:35.650Z,7.95
2022-09-24T03:58:03.745Z,7.80
2022-09-24T04:00:31.935Z,8.25
2022-09-24T04:03:00.083Z,8.02
2022-09-24T04:05:28.991Z,7.78
2022-09-24T04:07:57.142Z,7.60
2022-09-24T04:10:26.874Z,7.75
2022-09-24T04:12:55.176Z,8.15
2022-09-24T04:15:23.469Z,7.93
2022-09-24T04:17:52.351Z,8.95
2022-09-24T04:20:22.922Z,9.55
2022-09-24T04:22:51.801Z,8.68
2022-09-24T04:25:23.288Z,7.55
2022-09-24T04:27:56.832Z,8.00
2022-09-24T04:30:25.989Z,8.68
2022-09-24T04:32:54.142Z,8.80
2022-09-24T04:35:23.985Z,8.43
2022-09-24T04:37:52.195Z,8.05
2022-09-24T04:40:20.493Z,8.32
2022-09-24T04:42:48.662Z,7.88
2022-09-24T04:45:20.206Z,8.63
2022-09-24T04:47:57.138Z,7.68
2022-09-24T04:50:35.230Z,8.20
2022-09-24T04:53:04.107Z,8.27
2022-09-24T04:55:33.143Z,8.30
2022-09-24T04:58:01.238Z,8.68
2022-09-24T05:00:33.606Z,9.00
2022-09-24T05:03:04.669Z,9.40
2022-09-24T05:05:34.444Z,8.35
2022-09-24T05:08:04.868Z,8.77
2022-09-24T05:10:33.999Z,8.88
2022-09-24T05:13:02.994Z,8.57
2022-09-24T05:15:32.929Z,9.27
2022-09-24T05:18:01.084Z,8.18
2022-09-24T05:20:29.530Z,8.90
2022-09-24T05:22:58.055Z,10.00
2022-09-24T05:25:26.131Z,9.27
2022-09-24T05:27:55.001Z,10.15
2022-09-24T05:30:26.197Z,9.63
2022-09-24T05:32:56.570Z,10.75
2022-09-24T05:35:25.463Z,8.23
2022-09-24T05:37:54.129Z,7.40
2022-09-24T05:40:40.451Z,8.20
2022-09-24T05:43:09.053Z,7.32
2022-09-24T05:45:37.984Z,7.43
2022-09-24T05:48:09.776Z,6.40
2022-09-24T05:50:38.028Z,5.35
2022-09-24T05:53:07.142Z,4.55
2022-09-24T05:55:35.341Z,5.40
2022-09-24T05:58:07.754Z,5.10
2022-09-24T06:00:36.798Z,4.78
2022-09-24T06:03:07.963Z,4.38
2022-09-24T06:05:37.897Z,5.10
2022-09-24T06:08:08.125Z,5.18
2022-09-24T06:10:37.528Z,4.97
2022-09-24T06:13:05.806Z,4.97
2022-09-24T06:15:35.025Z,5.25
2022-09-24T06:18:03.376Z,4.32
2022-09-24T06:20:32.327Z,4.55
2022-09-24T06:23:07.874Z,4.20
2022-09-24T06:25:36.117Z,4.07
2022-09-24T06:28:06.317Z,3.83
2022-09-24T06:30:36.440Z,3.75
2022-09-24T06:33:06.245Z,3.72
2022-09-24T06:35:36.597Z,3.50
2022-09-24T06:38:05.619Z,3.70
2022-09-24T06:40:37.817Z,3.65
2022-09-24T06:43:07.188Z,3.80
2022-09-24T06:45:36.167Z,3.72
2022-09-24T06:48:06.347Z,3.10
2022-09-24T06:50:36.029Z,2.80
2022-09-24T06:53:09.484Z,3.58
2022-09-24T06:55:40.329Z,3.05
2022-09-24T06:58:11.402Z,3.00
2022-09-24T07:00:40.311Z,2.83
2022-09-24T07:03:09.245Z,2.63
2022-09-24T07:05:42.646Z,2.55
2022-09-24T07:08:12.527Z,2.53
2022-09-24T07:10:45.491Z,2.90
2022-09-24T07:13:15.688Z,3.13
2022-09-24T07:15:44.995Z,2.95
2022-09-24T07:18:15.520Z,3.00
2022-09-24T07:20:44.050Z,2.83
2022-09-24T07:23:13.722Z,2.92
2022-09-24T07:25:44.622Z,3.00
2022-09-24T07:28:15.593Z,2.92
2022-09-24T07:30:44.809Z,3.08
2022-09-24T07:33:14.278Z,2.42
2022-09-24T07:35:42.839Z,2.83
2022-09-24T07:38:13.460Z,2.80
2022-09-24T07:40:42.499Z,3.42
2022-09-24T07:43:14.264Z,2.97
2022-09-24T07:45:43.206Z,2.92
2022-09-24T07:48:12.879Z,2.30
2022-09-24T07:50:42.684Z,2.38
2022-09-24T07:53:13.546Z,2.53
2022-09-24T07:55:42.062Z,2.22
2022-09-24T07:58:14.694Z,2.53
2022-09-24T08:00:43.515Z,2.50
2022-09-24T08:03:12.065Z,2.40
2022-09-24T08:05:46.357Z,2.33
2022-09-24T08:08:15.002Z,2.25
2022-09-24T08:10:45.251Z,2.55
2022-09-24T08:13:16.766Z,2.38
2022-09-24T08:15:45.455Z,2.35
2022-09-24T08:18:15.476Z,2.58
2022-09-24T08:20:44.055Z,2.30
2022-09-24T08:23:12.676Z,2.20
2022-09-24T08:25:41.208Z,2.30
2022-09-24T08:28:12.195Z,2.50
2022-09-24T08:30:42.444Z,2.38
2022-09-24T08:33:11.018Z,2.17
2022-09-24T08:35:40.565Z,1.73
2022-09-24T08:38:10.175Z,2.20
2022-09-24T08:40:46.686Z,1.95
2022-09-24T08:43:27.473Z,2.08
2022-09-24T08:46:18.817Z,1.98
2022-09-24T08:48:51.469Z,2.33
2022-09-24T08:51:24.456Z,2.35
2022-09-24T08:53:59.262Z,2.25
2022-09-24T08:56:32.880Z,1.90
2022-09-24T08:59:03.752Z,2.33
2022-09-24T09:01:40.860Z,2.42
2022-09-24T09:04:26.248Z,2.30
2022-09-24T09:07:05.595Z,2.05
2022-09-24T09:09:46.089Z,2.22
2022-09-24T09:12:20.919Z,2.25
2022-09-24T09:14:55.640Z,2.15
2022-09-24T09:17:37.192Z,2.00
2022-09-24T09:20:11.878Z,2.17
2022-09-24T09:22:45.226Z,2.00
2022-09-24T09:25:21.285Z,1.80
2022-09-24T09:27:54.607Z,1.85
2022-09-24T09:30:25.218Z,1.83
2022-09-24T09:33:14.036Z,1.90
2022-09-24T09:35:51.116Z,1.80
2022-09-24T09:38:26.554Z,2.05
2022-09-24T09:41:03.983Z,1.80
2022-09-24T09:43:32.598Z,2.75
2022-09-24T09:46:12.367Z,1.80
2022-09-24T09:48:47.391Z,2.00
2022-09-24T09:51:23.462Z,2.38
2022-09-24T09:54:00.021Z,2.42
2022-09-24T09:56:31.546Z,2.15
2022-09-24T09:59:19.263Z,2.63
2022-09-24T10:01:55.758Z,2.03
2022-09-24T10:04:39.649Z,2.70
2022-09-24T10:07:10.761Z,2.83
2022-09-24T10:09:40.948Z,2.63
2022-09-24T10:12:18.856Z,3.03
2022-09-24T10:14:59.126Z,3.10
2022-09-24T10:17:31.205Z,2.70
2022-09-24T10:20:02.726Z,3.33
2022-09-24T10:22:33.358Z,2.80
2022-09-24T10:25:02.555Z,3.10
2022-09-24T10:27:37.581Z,3.10
2022-09-24T10:30:32.119Z,2.72
2022-09-24T10:33:03.977Z,3.00
2022-09-24T10:35:36.095Z,3.30
2022-09-24T10:38:17.108Z,2.72
2022-09-24T10:40:48.778Z,3.33
2022-09-24T10:43:20.510Z,3.25
2022-09-24T10:46:14.719Z,3.20
2022-09-24T10:48:46.769Z,3.33
2022-09-24T10:51:29.675Z,3.70
2022-09-24T10:54:22.091Z,3.17
2022-09-24T10:57:00.510Z,3.25
2022-09-24T10:59:43.354Z,3.33
2022-09-24T11:02:47.780Z,3.83
2022-09-24T11:05:22.755Z,4.22
2022-09-24T11:08:08.046Z,3.95
2022-09-24T11:11:14.826Z,3.60
2022-09-24T11:13:51.605Z,3.60
2022-09-24T11:16:39.202Z,3.35
2022-09-24T11:19:22.047Z,3.38
2022-09-24T11:22:08.391Z,3.50
2022-09-24T11:24:56.447Z,3.70
2022-09-24T11:27:45.176Z,3.45
2022-09-24T11:30:15.978Z,2.92
2022-09-24T11:33:06.259Z,3.40
2022-09-24T11:36:12.142Z,2.63
2022-09-24T11:38:54.243Z,2.90
2022-09-24T11:41:38.865Z,3.10
2022-09-24T11:44:22.984Z,2.72
2022-09-24T11:47:04.169Z,2.67
2022-09-24T11:49:53.198Z,2.85
2022-09-24T11:52:30.329Z,2.97
2022-09-24T11:55:06.155Z,2.88
2022-09-24T11:57:40.913Z,3.00
2022-09-24T12:00:17.687Z,3.00
2022-09-24T12:02:51.975Z,3.22
2022-09-24T12:05:29.752Z,3.10
2022-09-24T12:08:03.913Z,2.85
2022-09-24T12:10:38.617Z,2.90
2022-09-24T12:13:18.215Z,2.90
2022-09-24T12:15:53.925Z,2.63
2022-09-24T12:18:26.139Z,2.65
2022-09-24T12:21:01.507Z,2.85
2022-09-24T12:23:35.386Z,2.97
2022-09-24T12:26:07.157Z,2.55
2022-09-24T12:29:00.334Z,2.55
2022-09-24T12:31:59.956Z,3.30
2022-09-24T12:34:35.069Z,2.20
2022-09-24T12:37:07.878Z,2.30
2022-09-24T12:39:46.136Z,2.65
2022-09-24T12:42:16.430Z,2.20
2022-09-24T12:44:50.726Z,2.47
2022-09-24T12:47:23.980Z,2.80
2022-09-24T12:49:56.337Z,2.60
2022-09-24T12:52:32.733Z,2.28
2022-09-24T12:55:03.375Z,2.50
2022-09-24T12:57:37.070Z,2.70
2022-09-24T13:00:39.353Z,2.58
2022-09-24T13:03:29.151Z,2.30
2022-09-24T13:06:00.144Z,2.53
2022-09-24T13:08:38.014Z,2.28
2022-09-24T13:11:27.593Z,2.70
2022-09-24T13:14:18.840Z,2.05
2022-09-24T13:16:51.179Z,2.17
2022-09-24T13:19:37.749Z,2.45
2022-09-24T13:22:07.827Z,2.47
2022-09-24T13:24:48.255Z,2.28
2022-09-24T13:27:26.315Z,2.40
2022-09-24T13:30:06.973Z,2.55
2022-09-24T13:32:43.625Z,2.10
2022-09-24T13:35:21.818Z,3.03
2022-09-24T13:37:57.268Z,2.25
2022-09-24T13:40:31.232Z,2.30
2022-09-24T13:43:06.471Z,2.45
2022-09-24T13:45:37.427Z,2.30
2022-09-24T13:48:19.534Z,2.45
2022-09-24T13:50:52.941Z,2.38
2022-09-24T13:53:29.881Z,2.53
2022-09-24T13:56:02.315Z,2.35
2022-09-24T13:58:32.767Z,2.50
2022-09-24T14:01:07.474Z,2.35
2022-09-24T14:03:40.869Z,2.20
2022-09-24T14:06:13.764Z,2.30
2022-09-24T14:08:44.578Z,2.38
2022-09-24T14:11:19.482Z,2.22
2022-09-24T14:13:47.878Z,2.42
2022-09-24T14:16:19.923Z,2.72
2022-09-24T14:18:50.210Z,2.50
2022-09-24T14:21:24.185Z,2.88
2022-09-24T14:23:57.268Z,2.50
2022-09-24T14:26:32.072Z,2.40
2022-09-24T14:29:04.993Z,2.45
2022-09-24T14:31:33.514Z,2.50
2022-09-24T14:34:06.562Z,2.53
2022-09-24T14:36:37.478Z,2.95
2022-09-24T14:39:07.114Z,2.47
2022-09-24T14:41:37.734Z,2.55
2022-09-24T14:44:10.531Z,2.80
2022-09-24T14:46:46.001Z,3.00
2022-09-24T14:49:21.635Z,2.70
2022-09-24T14:51:55.034Z,3.20
2022-09-24T14:54:29.765Z,2.70
2022-09-24T14:57:09.491Z,2.78
2022-09-24T14:59:39.314Z,2.60
2022-09-24T15:02:19.207Z,2.58
2022-09-24T15:04:52.358Z,2.50
2022-09-24T15:07:23.593Z,2.30
2022-09-24T15:09:53.457Z,2.63
2022-09-24T15:12:30.710Z,2.28
2022-09-24T15:15:01.037Z,2.42
2022-09-24T15:17:32.903Z,2.30
2022-09-24T15:20:03.868Z,2.17
2022-09-24T15:22:32.685Z,3.00
2022-09-24T15:25:02.675Z,2.25
2022-09-24T15:27:33.986Z,2.38
2022-09-24T15:30:04.897Z,2.40
2022-09-24T15:32:35.143Z,2.25
2022-09-24T15:35:08.690Z,1.90
2022-09-24T15:37:40.605Z,2.20
2022-09-24T15:40:17.388Z,2.10
2022-09-24T15:42:45.904Z,1.95
2022-09-24T15:45:18.922Z,2.28
2022-09-24T15:47:47.374Z,2.47
2022-09-24T15:50:17.810Z,2.20
2022-09-24T15:52:49.715Z,2.70
2022-09-24T15:55:20.522Z,2.30
2022-09-24T15:57:49.244Z,2.20
2022-09-24T16:00:20.161Z,2.22
2022-09-24T16:02:51.194Z,2.45
2022-09-24T16:05:21.430Z,2.10
2022-09-24T16:07:49.797Z,2.40
2022-09-24T16:10:19.447Z,2.00
2022-09-24T16:12:47.914Z,2.38
2022-09-24T16:15:17.247Z,2.22
2022-09-24T16:17:45.985Z,2.03
2022-09-24T16:20:14.524Z,1.85
2022-09-24T16:22:44.322Z,2.03
2022-09-24T16:25:12.724Z,2.33
2022-09-24T16:27:41.178Z,2.10
2022-09-24T16:30:10.394Z,2.13
2022-09-24T16:32:38.785Z,2.15
2022-09-24T16:35:11.090Z,2.47
2022-09-24T16:37:39.667Z,2.47
2022-09-24T16:40:10.619Z,2.60
2022-09-24T16:42:39.047Z,2.30
2022-09-24T16:45:10.343Z,2.28
2022-09-24T16:47:38.753Z,2.10
2022-09-24T16:50:08.217Z,2.30
2022-09-24T16:52:36.656Z,2.72
2022-09-24T16:55:05.344Z,2.95
2022-09-24T16:57:37.455Z,2.90
2022-09-24T17:00:08.525Z,2.85
2022-09-24T17:02:37.295Z,2.90
2022-09-24T17:05:06.766Z,3.00
2022-09-24T17:07:35.633Z,3.05
2022-09-24T17:10:16.072Z,3.38
2022-09-24T17:12:53.007Z,3.17
2022-09-24T17:15:23.404Z,3.25
2022-09-24T17:17:52.246Z,6.78
2022-09-24T17:20:21.448Z,6.60
2022-09-24T17:22:50.960Z,4.70
2022-09-24T17:25:19.529Z,3.75
2022-09-24T17:27:49.362Z,4.18
2022-09-24T17:30:17.816Z,4.55
2022-09-24T17:32:46.283Z,3.88
2022-09-24T17:35:14.822Z,4.20
2022-09-24T17:37:44.375Z,3.53
2022-09-24T17:40:13.056Z,3.42
2022-09-24T17:42:45.798Z,3.42
2022-09-24T17:45:15.770Z,4.00
2022-09-24T17:48:00.468Z,4.35
2022-09-24T17:50:29.938Z,4.60
2022-09-24T17:52:59.295Z,4.85
2022-09-24T17:55:28.433Z,4.95
2022-09-24T17:57:56.887Z,4.45
2022-09-24T18:00:26.923Z,3.85
2022-09-24T18:02:56.229Z,4.50
2022-09-24T18:05:27.301Z,3.88
2022-09-24T18:07:56.108Z,4.22
2022-09-24T18:10:25.508Z,5.70
2022-09-24T18:12:55.520Z,4.07
2022-09-24T18:15:25.361Z,4.25
2022-09-24T18:17:57.061Z,4.25
2022-09-24T18:20:26.506Z,4.78
2022-09-24T18:22:55.062Z,4.75
2022-09-24T18:25:23.910Z,4.82
2022-09-24T18:27:53.010Z,4.68
2022-09-24T18:30:21.449Z,4.85
2022-09-24T18:32:50.914Z,4.90
2022-09-24T18:35:21.183Z,4.32
2022-09-24T18:37:49.639Z,4.97
2022-09-24T18:40:18.114Z,4.90
2022-09-24T18:42:46.576Z,5.03
2022-09-24T18:45:16.699Z,5.22
2022-09-24T18:47:47.183Z,5.03
2022-09-24T18:50:16.254Z,4.78
2022-09-24T18:52:46.112Z,5.40
2022-09-24T18:55:14.171Z,4.82
2022-09-24T18:57:42.286Z,4.32
2022-09-24T19:00:31.764Z,5.20
2022-09-24T19:03:00.291Z,4.80
2022-09-24T19:05:28.762Z,4.85
2022-09-24T19:07:59.254Z,4.70
2022-09-24T19:10:27.685Z,4.90
2022-09-24T19:12:56.787Z,5.57
2022-09-24T19:15:25.282Z,5.80
2022-09-24T19:17:54.557Z,6.70
2022-09-24T19:20:22.853Z,6.93
2022-09-24T19:23:00.239Z,7.10
2022-09-24T19:25:33.001Z,6.97
2022-09-24T19:28:01.553Z,5.82
2022-09-24T19:30:29.950Z,5.45
2022-09-24T19:32:59.880Z,6.22
2022-09-24T19:35:28.277Z,5.40
2022-09-24T19:37:56.815Z,5.80
2022-09-24T19:40:25.007Z,6.07
2022-09-24T19:42:54.722Z,5.70
2022-09-24T19:45:23.846Z,5.78
2022-09-24T19:47:51.985Z,5.50
2022-09-24T19:50:20.166Z,5.25
2022-09-24T19:52:48.806Z,5.88
2022-09-24T19:55:17.095Z,5.93
2022-09-24T19:57:45.317Z,6.15
2022-09-24T20:00:15.646Z,6.15
2022-09-24T20:02:44.160Z,6.40
2022-09-24T20:05:12.267Z,5.60
2022-09-24T20:07:41.994Z,5.88
2022-09-24T20:10:11.175Z,6.10
2022-09-24T20:12:41.644Z,5.35
2022-09-24T20:15:10.531Z,5.32
2022-09-24T20:18:25.477Z,6.05
2022-09-24T20:20:55.396Z,5.20
2022-09-24T20:23:24.695Z,6.18
2022-09-24T20:26:10.973Z,6.03
2022-09-24T20:28:39.612Z,6.30
2022-09-24T20:31:11.013Z,5.72
2022-09-24T20:33:41.200Z,6.20
2022-09-24T20:36:16.594Z,6.50
2022-09-24T20:38:48.360Z,6.15
2022-09-24T20:41:18.083Z,6.20
2022-09-24T20:43:47.915Z,6.03
2022-09-24T20:46:22.105Z,5.90
2022-09-24T20:48:52.783Z,8.35
2022-09-24T20:51:24.089Z,11.80
2022-09-24T20:53:53.815Z,18.92
2022-09-24T20:56:24.177Z,22.02
2022-09-24T20:59:02.121Z,26.33
2022-09-24T21:01:31.771Z,19.27
2022-09-24T21:04:00.259Z,13.73
2022-09-24T21:06:30.454Z,13.25
2022-09-24T21:08:58.993Z,9.32
2022-09-24T21:11:28.379Z,8.65
2022-09-24T21:14:00.667Z,6.22
2022-09-24T21:16:31.272Z,5.57
2022-09-24T21:19:00.552Z,6.07
2022-09-24T21:21:32.922Z,6.05
2022-09-24T21:24:02.504Z,5.00
2022-09-24T21:26:33.320Z,7.07
2022-09-24T21:29:04.086Z,7.80
2022-09-24T21:31:34.270Z,6.47
2022-09-24T21:34:03.091Z,5.97
2022-09-24T21:36:42.909Z,6.18
2022-09-24T21:39:15.757Z,6.13
2022-09-24T21:41:45.680Z,6.10
2022-09-24T21:44:17.604Z,6.10
2022-09-24T21:46:46.273Z,6.60
2022-09-24T21:49:17.291Z,6.20
2022-09-24T21:51:47.586Z,6.50
2022-09-24T21:54:18.809Z,6.50
2022-09-24T21:56:48.515Z,6.22
2022-09-24T21:59:35.121Z,6.20
2022-09-24T22:02:04.276Z,6.05
2022-09-24T22:04:33.800Z,6.65
2022-09-24T22:07:03.820Z,5.53
2022-09-24T22:09:32.836Z,5.90
2022-09-24T22:12:02.126Z,5.57
2022-09-24T22:14:33.754Z,5.80
2022-09-24T22:17:03.945Z,5.38
2022-09-24T22:19:35.350Z,6.20
2022-09-24T22:22:06.780Z,5.50
2022-09-24T22:24:34.914Z,5.60
2022-09-24T22:27:04.909Z,5.35
2022-09-24T22:29:33.224Z,5.15
2022-09-24T22:32:04.559Z,4.95
2022-09-24T22:34:52.148Z,5.10
2022-09-24T22:37:24.186Z,4.53
2022-09-24T22:39:52.440Z,5.45
2022-09-24T22:42:21.165Z,5.43
2022-09-24T22:44:49.559Z,4.60
2022-09-24T22:47:18.173Z,4.78
2022-09-24T22:49:46.859Z,4.35
2022-09-24T22:52:15.202Z,4.97
2022-09-24T22:54:45.140Z,4.65
2022-09-24T22:57:13.548Z,4.35
2022-09-24T22:59:42.817Z,4.93
2022-09-24T23:02:13.504Z,5.03
2022-09-24T23:04:42.022Z,4.82
2022-09-24T23:07:10.539Z,4.30
2022-09-24T23:09:42.548Z,4.20
2022-09-24T23:12:12.217Z,4.30
2022-09-24T23:14:41.638Z,4.38
2022-09-24T23:17:11.297Z,4.32
2022-09-24T23:19:52.766Z,4.35
2022-09-24T23:22:24.352Z,4.28
2022-09-24T23:24:53.914Z,4.07
2022-09-24T23:27:25.372Z,4.50
2022-09-24T23:29:55.045Z,4.45
2022-09-24T23:32:24.592Z,4.18
2022-09-24T23:34:53.441Z,4.40
2022-09-24T23:37:22.054Z,4.20
2022-09-24T23:39:55.386Z,4.30
2022-09-24T23:42:32.905Z,3.83
2022-09-24T23:45:02.225Z,4.13
2022-09-24T23:47:33.960Z,3.60
2022-09-24T23:50:04.591Z,4.45
2022-09-24T23:52:32.687Z,3.42
2022-09-24T23:55:00.957Z,4.85
2022-09-24T23:57:30.956Z,3.70
2022-09-24T23:59:59.262Z,4.07
